createdAt,value
2017-05-19T00:00:42.610Z,0
2017-05-19T00:01:56.863Z,0
2017-05-19T00:03:09.639Z,0
2017-05-19T00:04:23.594Z,0
2017-05-19T00:05:38.959Z,0
2017-05-19T00:06:54.344Z,0
2017-05-19T00:08:07.319Z,0
2017-05-19T00:09:21.396Z,0
2017-05-19T00:10:35.475Z,0
2017-05-19T00:11:50.870Z,0
2017-05-19T00:13:05.004Z,0
2017-05-19T00:14:20.431Z,0
2017-05-19T00:15:35.782Z,0
2017-05-19T00:16:51.369Z,0
2017-05-19T00:18:06.934Z,0
2017-05-19T00:19:22.283Z,0
2017-05-19T00:20:37.654Z,0
2017-05-19T00:21:53.051Z,0
2017-05-19T00:23:08.639Z,0
2017-05-19T00:24:23.651Z,0
2017-05-19T00:25:37.750Z,0
2017-05-19T00:26:53.108Z,0
2017-05-19T00:28:07.521Z,0
2017-05-19T00:29:22.916Z,0
2017-05-19T00:30:38.291Z,0
2017-05-19T00:31:52.349Z,0
2017-05-19T00:33:07.521Z,0
2017-05-19T00:34:22.897Z,0
2017-05-19T00:35:35.581Z,0
2017-05-19T00:36:48.258Z,0
2017-05-19T00:38:02.497Z,0
2017-05-19T00:39:16.548Z,0
2017-05-19T00:40:31.942Z,0
2017-05-19T00:41:45.884Z,0
2017-05-19T00:43:01.477Z,0
2017-05-19T00:44:15.397Z,0
2017-05-19T00:45:29.315Z,0
2017-05-19T00:46:43.359Z,0
2017-05-19T00:47:56.130Z,0
2017-05-19T00:49:11.677Z,0
2017-05-19T00:50:27.076Z,0
2017-05-19T00:51:39.892Z,0
2017-05-19T00:52:55.273Z,0
2017-05-19T00:54:10.451Z,0
2017-05-19T00:55:25.796Z,0
2017-05-19T00:56:41.624Z,0
2017-05-19T00:57:56.957Z,0
2017-05-19T00:59:11.249Z,0
2017-05-19T01:00:26.576Z,0
2017-05-19T01:01:41.955Z,0
2017-05-19T01:02:56.009Z,0
2017-05-19T01:04:11.583Z,0
2017-05-19T01:05:25.816Z,0
2017-05-19T01:06:41.164Z,0
2017-05-19T01:07:55.154Z,0
2017-05-19T01:09:10.695Z,0
2017-05-19T01:10:26.060Z,0
2017-05-19T01:11:41.407Z,0
2017-05-19T01:12:56.746Z,0
2017-05-19T01:14:12.592Z,0
2017-05-19T01:15:27.938Z,0
2017-05-19T01:16:43.315Z,0
2017-05-19T01:17:58.750Z,0
2017-05-19T01:19:11.870Z,0
2017-05-19T01:20:27.195Z,0
2017-05-19T01:21:42.537Z,0
2017-05-19T01:22:58.127Z,0
2017-05-19T01:24:12.388Z,0
2017-05-19T01:25:27.791Z,0
2017-05-19T01:26:43.141Z,0
2017-05-19T01:27:58.587Z,0
2017-05-19T01:29:14.115Z,0
2017-05-19T01:30:29.457Z,0
2017-05-19T01:31:43.566Z,0
2017-05-19T01:32:58.963Z,0
2017-05-19T01:34:13.015Z,0
2017-05-19T01:35:27.268Z,0
2017-05-19T01:36:42.611Z,0
2017-05-19T01:37:58.065Z,0
2017-05-19T01:39:13.643Z,0
2017-05-19T01:40:29.264Z,0
2017-05-19T01:41:41.899Z,0
2017-05-19T01:42:55.955Z,0
2017-05-19T01:44:10.001Z,0
2017-05-19T01:45:24.251Z,0
2017-05-19T01:46:39.843Z,0
2017-05-19T01:47:53.894Z,0
2017-05-19T01:49:07.841Z,0
2017-05-19T01:50:23.401Z,0
2017-05-19T01:51:38.736Z,0
2017-05-19T01:52:51.511Z,0
2017-05-19T01:54:05.431Z,0
2017-05-19T01:55:20.973Z,0
2017-05-19T01:56:36.328Z,0
2017-05-19T01:57:51.661Z,0
2017-05-19T01:59:07.077Z,0
2017-05-19T02:00:22.607Z,0
2017-05-19T02:01:38.226Z,0
2017-05-19T02:02:53.801Z,0
2017-05-19T02:04:09.172Z,0
2017-05-19T02:05:24.711Z,0
2017-05-19T02:06:40.050Z,0
2017-05-19T02:07:54.127Z,0
2017-05-19T02:09:09.470Z,0
2017-05-19T02:10:23.734Z,0
2017-05-19T02:11:36.375Z,0
2017-05-19T02:12:51.350Z,0
2017-05-19T02:14:06.676Z,0
2017-05-19T02:15:22.018Z,0
2017-05-19T02:16:36.422Z,0
2017-05-19T02:17:46.603Z,0
2017-05-19T02:19:00.695Z,0
2017-05-19T02:20:16.295Z,0
2017-05-19T02:21:30.441Z,0
2017-05-19T02:22:45.833Z,0
2017-05-19T02:24:01.192Z,0
2017-05-19T02:25:15.252Z,0
2017-05-19T02:26:29.145Z,0
2017-05-19T02:27:44.517Z,0
2017-05-19T02:28:59.862Z,0
2017-05-19T02:30:14.192Z,0
2017-05-19T02:31:28.446Z,0
2017-05-19T02:32:43.791Z,0
2017-05-19T02:33:58.143Z,0
2017-05-19T02:35:12.654Z,0
2017-05-19T02:36:28.221Z,0
2017-05-19T02:37:43.545Z,0
2017-05-19T02:38:58.919Z,0
2017-05-19T02:40:14.505Z,0
2017-05-19T02:41:28.632Z,0
2017-05-19T02:42:43.998Z,0
2017-05-19T02:43:58.140Z,4
2017-05-19T02:45:13.466Z,0
2017-05-19T02:46:27.589Z,0
2017-05-19T02:47:41.940Z,0
2017-05-19T02:48:57.312Z,4
2017-05-19T02:50:12.690Z,4
2017-05-19T02:51:28.025Z,4
2017-05-19T02:52:42.300Z,8
2017-05-19T02:53:56.387Z,8
2017-05-19T02:55:09.161Z,8
2017-05-19T02:56:24.529Z,8
2017-05-19T02:57:40.086Z,12
2017-05-19T02:58:54.167Z,16
2017-05-19T03:00:09.509Z,16
2017-05-19T03:01:24.846Z,24
2017-05-19T03:02:40.385Z,32
2017-05-19T03:03:54.439Z,44
2017-05-19T03:05:08.543Z,60
2017-05-19T03:06:22.604Z,68
2017-05-19T03:07:36.904Z,80
2017-05-19T03:08:52.303Z,88
2017-05-19T03:10:06.375Z,100
2017-05-19T03:11:20.124Z,108
2017-05-19T03:12:35.685Z,120
2017-05-19T03:13:49.735Z,136
2017-05-19T03:15:02.365Z,148
2017-05-19T03:16:16.416Z,160
2017-05-19T03:17:31.825Z,164
2017-05-19T03:18:47.361Z,160
2017-05-19T03:20:02.702Z,168
2017-05-19T03:21:18.395Z,172
2017-05-19T03:22:33.754Z,180
2017-05-19T03:23:49.314Z,196
2017-05-19T03:25:04.686Z,220
2017-05-19T03:26:20.023Z,248
2017-05-19T03:27:35.373Z,276
2017-05-19T03:28:50.948Z,308
2017-05-19T03:30:06.520Z,348
2017-05-19T03:31:21.862Z,400
2017-05-19T03:32:36.832Z,452
2017-05-19T03:33:52.046Z,496
2017-05-19T03:35:07.500Z,532
2017-05-19T03:36:22.904Z,556
2017-05-19T03:37:38.354Z,556
2017-05-19T03:38:53.936Z,560
2017-05-19T03:40:09.305Z,572
2017-05-19T03:41:24.682Z,580
2017-05-19T03:42:40.044Z,592
2017-05-19T03:43:55.643Z,604
2017-05-19T03:45:11.046Z,612
2017-05-19T03:46:25.115Z,616
2017-05-19T03:47:38.841Z,608
2017-05-19T03:48:54.435Z,596
2017-05-19T03:50:08.584Z,592
2017-05-19T03:51:23.965Z,596
2017-05-19T03:52:39.302Z,592
2017-05-19T03:53:53.476Z,600
2017-05-19T03:55:08.814Z,600
2017-05-19T03:56:22.880Z,596
2017-05-19T03:57:36.914Z,604
2017-05-19T03:58:51.081Z,608
2017-05-19T04:00:06.469Z,624
2017-05-19T04:01:20.543Z,632
2017-05-19T04:02:35.888Z,652
2017-05-19T04:03:50.138Z,676
2017-05-19T04:05:05.115Z,716
2017-05-19T04:06:19.220Z,764
2017-05-19T04:07:34.550Z,780
2017-05-19T04:08:48.704Z,832
2017-05-19T04:10:04.369Z,900
2017-05-19T04:11:19.711Z,992
2017-05-19T04:12:33.828Z,1072
2017-05-19T04:13:49.239Z,1176
2017-05-19T04:15:04.776Z,1296
2017-05-19T04:16:20.163Z,1452
2017-05-19T04:17:35.509Z,1636
2017-05-19T04:18:50.907Z,1824
2017-05-19T04:20:06.466Z,2036
2017-05-19T04:21:21.949Z,2252
2017-05-19T04:22:36.007Z,2496
2017-05-19T04:24:19.877Z,2608
2017-05-19T04:25:35.242Z,2584
2017-05-19T04:26:50.653Z,2580
2017-05-19T04:28:05.996Z,2536
2017-05-19T04:29:18.634Z,2488
2017-05-19T04:30:31.525Z,2424
2017-05-19T04:31:47.124Z,2352
2017-05-19T04:33:01.192Z,2392
2017-05-19T04:34:15.451Z,2504
2017-05-19T04:35:29.573Z,2648
2017-05-19T04:36:43.487Z,2820
2017-05-19T04:37:56.002Z,3008
2017-05-19T04:39:11.617Z,3212
2017-05-19T04:40:26.960Z,3424
2017-05-19T04:41:41.021Z,3580
2017-05-19T04:42:55.067Z,3680
2017-05-19T04:44:09.123Z,3828
2017-05-19T04:45:24.884Z,4128
2017-05-19T04:46:40.286Z,4464
2017-05-19T04:47:54.231Z,4568
2017-05-19T04:49:09.580Z,4796
2017-05-19T04:50:25.113Z,4800
2017-05-19T04:51:40.455Z,5328
2017-05-19T04:52:54.967Z,5400
2017-05-19T04:54:09.050Z,5580
2017-05-19T04:55:23.316Z,5332
2017-05-19T04:56:37.364Z,5260
2017-05-19T04:57:52.754Z,5340
2017-05-19T04:59:08.096Z,5352
2017-05-19T05:00:23.640Z,5392
2017-05-19T05:01:37.689Z,5496
2017-05-19T05:02:53.161Z,5368
2017-05-19T05:04:08.489Z,5516
2017-05-19T05:05:22.777Z,5672
2017-05-19T05:06:38.128Z,5824
2017-05-19T05:07:52.277Z,6068
2017-05-19T05:09:07.657Z,6260
2017-05-19T05:10:23.204Z,6536
2017-05-19T05:11:38.556Z,6964
2017-05-19T05:12:52.767Z,7428
2017-05-19T05:14:08.123Z,7420
2017-05-19T05:15:22.303Z,7556
2017-05-19T05:16:36.338Z,7796
2017-05-19T05:17:51.835Z,7828
2017-05-19T05:19:04.596Z,7756
2017-05-19T05:20:18.715Z,7684
2017-05-19T05:21:34.494Z,7664
2017-05-19T05:22:50.064Z,7036
2017-05-19T05:24:05.453Z,7128
2017-05-19T05:25:20.953Z,7104
2017-05-19T05:26:35.251Z,7188
2017-05-19T05:27:50.598Z,7524
2017-05-19T05:29:05.955Z,7292
2017-05-19T05:30:20.024Z,7484
2017-05-19T05:31:35.664Z,7352
2017-05-19T05:32:49.750Z,7580
2017-05-19T05:34:05.104Z,8060
2017-05-19T05:35:19.222Z,7908
2017-05-19T05:36:34.913Z,8568
2017-05-19T05:37:50.272Z,8724
2017-05-19T05:39:04.323Z,9248
2017-05-19T05:40:18.377Z,9512
2017-05-19T05:41:33.921Z,9656
2017-05-19T05:42:48.207Z,9524
2017-05-19T05:44:02.381Z,8996
2017-05-19T05:45:15.051Z,8252
2017-05-19T05:46:30.723Z,7388
2017-05-19T05:47:46.346Z,6904
2017-05-19T05:49:01.739Z,6472
2017-05-19T05:50:15.780Z,6444
2017-05-19T05:51:31.395Z,5564
2017-05-19T05:52:45.444Z,5020
2017-05-19T05:54:00.160Z,5088
2017-05-19T05:55:14.248Z,5648
2017-05-19T05:56:28.375Z,5744
2017-05-19T05:57:41.033Z,5840
2017-05-19T05:58:56.644Z,5816
2017-05-19T06:00:12.048Z,5780
2017-05-19T06:01:27.653Z,5764
2017-05-19T06:02:43.234Z,5828
2017-05-19T06:03:57.715Z,5844
2017-05-19T06:05:11.820Z,5864
2017-05-19T06:06:26.097Z,5892
2017-05-19T06:07:41.695Z,5952
2017-05-19T06:08:57.041Z,5936
2017-05-19T06:10:12.539Z,5964
2017-05-19T06:11:26.644Z,6096
2017-05-19T06:12:42.442Z,6064
2017-05-19T06:13:57.826Z,5460
2017-05-19T06:15:11.954Z,5972
2017-05-19T06:16:26.962Z,5460
2017-05-19T06:17:42.519Z,5520
2017-05-19T06:18:57.965Z,5352
2017-05-19T06:20:13.311Z,5872
2017-05-19T06:21:27.363Z,5876
2017-05-19T06:22:42.928Z,5640
2017-05-19T06:23:57.017Z,5792
2017-05-19T06:25:12.362Z,6416
2017-05-19T06:26:27.782Z,7812
2017-05-19T06:27:43.318Z,8612
2017-05-19T06:28:58.693Z,10328
2017-05-19T06:30:14.049Z,11356
2017-05-19T06:31:28.183Z,11832
2017-05-19T06:32:42.635Z,11940
2017-05-19T06:33:56.960Z,11152
2017-05-19T06:35:12.325Z,10560
2017-05-19T06:36:26.385Z,11104
2017-05-19T06:37:42.071Z,11540
2017-05-19T06:38:56.159Z,11876
2017-05-19T06:40:10.263Z,11924
2017-05-19T06:41:25.917Z,11808
2017-05-19T06:42:41.543Z,12600
2017-05-19T06:43:56.879Z,13312
2017-05-19T06:45:12.374Z,13848
2017-05-19T06:46:27.763Z,13652
2017-05-19T06:47:43.352Z,12844
2017-05-19T06:48:57.531Z,12164
2017-05-19T06:50:12.939Z,11876
2017-05-19T06:51:28.342Z,11768
2017-05-19T06:52:44.062Z,11604
2017-05-19T06:53:58.390Z,11316
2017-05-19T06:55:13.931Z,10900
2017-05-19T06:56:29.315Z,10492
2017-05-19T06:57:44.940Z,9952
2017-05-19T06:59:00.651Z,10172
2017-05-19T07:00:15.995Z,10428
2017-05-19T07:01:28.648Z,10940
2017-05-19T07:02:44.038Z,10908
2017-05-19T07:03:59.623Z,11520
2017-05-19T07:05:13.940Z,12272
2017-05-19T07:06:29.337Z,12416
2017-05-19T07:07:44.688Z,11708
2017-05-19T07:09:00.312Z,11456
2017-05-19T07:10:15.661Z,11604
2017-05-19T07:11:29.730Z,11288
2017-05-19T07:12:45.078Z,11108
2017-05-19T07:14:00.697Z,11928
2017-05-19T07:15:16.058Z,12676
2017-05-19T07:16:30.130Z,13384
2017-05-19T07:17:44.232Z,13680
2017-05-19T07:18:58.505Z,13496
2017-05-19T07:20:12.594Z,13012
2017-05-19T07:21:27.974Z,12436
2017-05-19T07:22:43.330Z,12524
2017-05-19T07:23:58.889Z,12968
2017-05-19T07:25:12.976Z,13512
2017-05-19T07:26:27.284Z,13224
2017-05-19T07:27:42.917Z,13556
2017-05-19T07:28:57.243Z,14092
2017-05-19T07:30:09.888Z,13580
2017-05-19T07:31:25.250Z,13892
2017-05-19T07:32:40.602Z,15104
2017-05-19T07:33:56.201Z,16192
2017-05-19T07:35:10.295Z,15184
2017-05-19T07:36:25.506Z,15776
2017-05-19T07:37:41.106Z,16448
2017-05-19T07:38:55.370Z,16352
2017-05-19T07:40:10.872Z,16416
2017-05-19T07:41:24.571Z,17568
2017-05-19T07:42:37.213Z,19648
2017-05-19T07:43:48.704Z,20960
2017-05-19T07:45:04.271Z,21760
2017-05-19T07:46:19.877Z,22176
2017-05-19T07:47:33.931Z,22560
2017-05-19T07:48:49.290Z,21952
2017-05-19T07:50:05.011Z,22912
2017-05-19T07:51:17.706Z,22048
2017-05-19T07:52:31.649Z,21344
2017-05-19T07:53:47.280Z,21472
2017-05-19T07:55:02.849Z,23424
2017-05-19T07:56:18.208Z,23936
2017-05-19T07:57:31.000Z,22688
2017-05-19T07:58:46.369Z,23744
2017-05-19T08:00:01.956Z,22976
2017-05-19T08:01:17.170Z,24288
2017-05-19T08:02:32.164Z,24672
2017-05-19T08:03:47.519Z,24288
2017-05-19T08:05:03.198Z,22560
2017-05-19T08:06:18.550Z,21856
2017-05-19T08:07:33.999Z,21664
2017-05-19T08:08:48.349Z,21728
2017-05-19T08:10:02.804Z,22432
2017-05-19T08:11:16.898Z,21568
2017-05-19T08:12:30.869Z,20768
2017-05-19T08:13:46.225Z,19200
2017-05-19T08:15:00.514Z,19968
2017-05-19T08:16:16.116Z,19776
2017-05-19T08:17:31.497Z,19456
2017-05-19T08:18:45.494Z,19616
2017-05-19T08:19:59.847Z,19840
2017-05-19T08:21:14.010Z,19232
2017-05-19T08:22:28.077Z,18752
2017-05-19T08:23:43.438Z,17728
2017-05-19T08:24:57.710Z,16332
2017-05-19T08:26:13.281Z,15120
2017-05-19T08:27:24.658Z,14624
2017-05-19T08:28:37.450Z,18400
2017-05-19T08:29:52.810Z,42528
2017-05-19T08:31:06.865Z,55968
2017-05-19T08:32:19.649Z,57088
2017-05-19T08:33:33.661Z,57472
2017-05-19T08:34:49.142Z,64480
2017-05-19T08:36:04.580Z,60640
2017-05-19T08:37:20.142Z,51648
2017-05-19T08:38:34.257Z,60224
2017-05-19T08:39:48.326Z,62464
2017-05-19T08:41:03.697Z,77920
2017-05-19T08:42:16.685Z,77184
2017-05-19T08:43:32.073Z,72736
2017-05-19T08:44:46.006Z,88384
2017-05-19T08:46:01.658Z,77760
2017-05-19T08:47:16.882Z,87616
2017-05-19T08:48:32.334Z,73440
2017-05-19T08:49:47.910Z,59424
2017-05-19T08:51:03.315Z,74272
2017-05-19T08:52:17.625Z,65632
2017-05-19T08:53:32.992Z,86656
2017-05-19T08:54:48.412Z,106624
2017-05-19T08:56:03.795Z,84736
2017-05-19T08:57:19.346Z,75904
2017-05-19T08:58:33.607Z,88800
2017-05-19T08:59:47.573Z,98368
2017-05-19T09:01:03.322Z,104352
2017-05-19T09:02:18.921Z,100096
2017-05-19T09:03:34.283Z,100000
2017-05-19T09:04:48.636Z,89056
2017-05-19T09:06:04.108Z,76608
2017-05-19T09:07:19.916Z,93824
2017-05-19T09:08:35.284Z,96000
2017-05-19T09:09:50.716Z,78368
2017-05-19T09:11:06.075Z,78080
2017-05-19T09:12:22.290Z,95360
2017-05-19T09:13:37.680Z,89152
2017-05-19T09:14:51.809Z,68864
2017-05-19T09:16:07.192Z,74848
2017-05-19T09:17:21.471Z,76512
2017-05-19T09:18:36.824Z,69184
2017-05-19T09:19:52.253Z,69344
2017-05-19T09:21:07.884Z,81696
2017-05-19T09:22:23.474Z,87808
2017-05-19T09:23:38.968Z,84512
2017-05-19T09:24:53.123Z,92800
2017-05-19T09:26:08.136Z,75616
2017-05-19T09:27:22.312Z,59360
2017-05-19T09:28:37.680Z,85632
2017-05-19T09:29:53.296Z,98912
2017-05-19T09:31:07.386Z,74752
2017-05-19T09:32:21.516Z,77536
2017-05-19T09:33:37.126Z,111584
2017-05-19T09:34:50.129Z,126016
2017-05-19T09:36:05.537Z,120928
2017-05-19T09:37:19.313Z,99392
2017-05-19T09:38:34.914Z,93696
2017-05-19T09:39:50.406Z,90976
2017-05-19T09:41:04.503Z,69728
2017-05-19T09:42:19.874Z,88288
2017-05-19T09:43:34.279Z,105344
2017-05-19T09:44:48.363Z,83264
2017-05-19T09:46:02.454Z,80256
2017-05-19T09:47:16.656Z,87712
2017-05-19T09:48:29.647Z,81504
2017-05-19T09:49:43.610Z,84800
2017-05-19T09:50:59.750Z,84512
2017-05-19T09:52:15.210Z,92800
2017-05-19T09:53:30.844Z,108704
2017-05-19T09:54:46.227Z,100512
2017-05-19T09:56:01.601Z,75584
2017-05-19T09:57:17.040Z,89024
2017-05-19T09:58:32.951Z,102880
2017-05-19T09:59:46.958Z,92256
2017-05-19T10:01:01.046Z,89984
2017-05-19T10:02:15.374Z,89216
2017-05-19T10:03:30.761Z,84320
2017-05-19T10:04:46.342Z,89024
2017-05-19T10:06:01.710Z,98528
2017-05-19T10:07:17.092Z,98240
2017-05-19T10:08:31.502Z,95456
2017-05-19T10:09:47.128Z,104096
2017-05-19T10:11:02.526Z,108448
2017-05-19T10:12:14.077Z,97376
2017-05-19T10:13:29.451Z,88192
2017-05-19T10:14:43.869Z,100704
2017-05-19T10:15:57.865Z,117216
2017-05-19T10:17:13.280Z,107904
2017-05-19T10:18:27.381Z,93280
2017-05-19T10:19:41.905Z,98080
2017-05-19T10:20:57.279Z,92032
2017-05-19T10:22:12.719Z,94560
2017-05-19T10:23:28.120Z,108128
2017-05-19T10:24:43.699Z,90336
2017-05-19T10:25:59.086Z,81056
2017-05-19T10:27:13.443Z,98464
2017-05-19T10:28:28.813Z,109888
2017-05-19T10:29:44.100Z,100736
2017-05-19T10:30:59.713Z,98432
2017-05-19T10:32:13.844Z,123200
2017-05-19T10:33:29.218Z,127744
2017-05-19T10:34:43.880Z,94880
2017-05-19T10:35:59.268Z,68064
2017-05-19T10:37:14.697Z,61024
2017-05-19T10:38:27.755Z,72576
2017-05-19T10:39:43.338Z,102592
2017-05-19T10:40:57.536Z,118976
2017-05-19T10:42:43.869Z,93856
2017-05-19T10:43:58.038Z,102528
2017-05-19T10:45:12.329Z,130528
2017-05-19T10:46:26.410Z,137952
2017-05-19T10:47:41.770Z,126688
2017-05-19T10:48:54.617Z,125184
2017-05-19T10:50:10.560Z,126976
2017-05-19T10:51:26.054Z,120832
2017-05-19T10:52:40.159Z,108864
2017-05-19T10:53:55.797Z,100736
2017-05-19T10:55:11.039Z,105056
2017-05-19T10:56:22.407Z,116352
2017-05-19T10:57:37.782Z,110272
2017-05-19T10:58:51.861Z,95552
2017-05-19T11:00:06.136Z,98112
2017-05-19T11:01:19.021Z,91168
2017-05-19T11:02:34.476Z,82208
2017-05-19T11:03:49.861Z,89088
2017-05-19T11:05:04.174Z,87712
2017-05-19T11:06:19.774Z,80608
2017-05-19T11:07:33.860Z,72032
2017-05-19T11:08:47.821Z,84192
2017-05-19T11:10:01.555Z,80480
2017-05-19T11:11:17.188Z,81792
2017-05-19T11:12:30.006Z,109248
2017-05-19T11:13:43.754Z,133312
2017-05-19T11:14:59.170Z,114688
2017-05-19T11:16:13.562Z,96960
2017-05-19T11:17:29.025Z,117536
2017-05-19T11:18:44.401Z,136512
2017-05-19T11:19:59.768Z,110784
2017-05-19T11:21:14.055Z,82048
2017-05-19T11:22:29.073Z,91840
2017-05-19T11:23:43.535Z,136192
2017-05-19T11:24:58.894Z,151648
2017-05-19T11:26:14.522Z,121248
2017-05-19T11:27:28.633Z,101856
2017-05-19T11:28:44.063Z,116640
2017-05-19T11:29:59.481Z,116032
2017-05-19T11:31:15.398Z,98528
2017-05-19T11:32:30.794Z,105600
2017-05-19T11:33:46.244Z,123744
2017-05-19T11:35:01.625Z,123648
2017-05-19T11:36:15.979Z,107584
2017-05-19T11:37:30.113Z,101120
2017-05-19T11:38:45.478Z,107520
2017-05-19T11:40:00.880Z,102560
2017-05-19T11:41:16.505Z,95968
2017-05-19T11:42:32.020Z,109728
2017-05-19T11:43:46.096Z,127072
2017-05-19T11:45:01.535Z,116288
2017-05-19T11:46:16.109Z,83808
2017-05-19T11:47:31.495Z,77248
2017-05-19T11:48:46.891Z,118656
2017-05-19T11:50:00.867Z,139904
2017-05-19T11:51:14.961Z,133568
2017-05-19T11:52:30.358Z,135552
2017-05-19T11:53:44.506Z,135392
2017-05-19T11:54:59.982Z,116736
2017-05-19T11:56:15.364Z,93120
2017-05-19T11:57:31.042Z,99136
2017-05-19T11:58:46.404Z,114912
2017-05-19T12:00:01.828Z,108224
2017-05-19T12:01:17.287Z,95712
2017-05-19T12:02:31.661Z,103200
2017-05-19T12:03:46.097Z,111616
2017-05-19T12:05:01.531Z,115328
2017-05-19T12:06:15.605Z,116864
2017-05-19T12:07:29.891Z,105728
2017-05-19T12:08:45.265Z,89696
2017-05-19T12:09:59.371Z,84192
2017-05-19T12:11:15.031Z,97216
2017-05-19T12:12:29.207Z,116192
2017-05-19T12:13:44.259Z,123040
2017-05-19T12:14:59.651Z,112768
2017-05-19T12:16:15.022Z,95648
2017-05-19T12:17:29.338Z,82752
2017-05-19T12:18:44.762Z,83456
2017-05-19T12:19:57.451Z,89824
2017-05-19T12:21:12.932Z,97600
2017-05-19T12:22:27.314Z,89088
2017-05-19T12:23:42.675Z,70656
2017-05-19T12:24:56.650Z,73920
2017-05-19T12:26:12.125Z,100992
2017-05-19T12:27:27.690Z,116096
2017-05-19T12:28:41.785Z,106048
2017-05-19T12:29:57.155Z,91552
2017-05-19T12:31:11.126Z,84512
2017-05-19T12:32:26.579Z,94496
2017-05-19T12:33:42.266Z,105248
2017-05-19T12:34:56.448Z,103136
2017-05-19T12:36:10.610Z,94112
2017-05-19T12:37:24.701Z,85184
2017-05-19T12:38:40.281Z,77120
2017-05-19T12:39:55.720Z,73120
2017-05-19T12:41:09.836Z,77408
2017-05-19T12:42:23.928Z,100064
2017-05-19T12:43:38.215Z,115264
2017-05-19T12:44:51.019Z,104960
2017-05-19T12:46:06.477Z,88352
2017-05-19T12:47:20.578Z,102816
2017-05-19T12:48:36.195Z,123744
2017-05-19T12:49:51.578Z,100832
2017-05-19T12:51:06.975Z,62208
2017-05-19T12:52:22.432Z,72864
2017-05-19T12:54:09.043Z,108192
2017-05-19T12:55:24.427Z,79552
2017-05-19T12:56:39.788Z,74656
2017-05-19T12:57:55.617Z,98496
2017-05-19T12:59:11.475Z,130080
2017-05-19T13:00:26.874Z,112800
2017-05-19T13:01:39.776Z,98752
2017-05-19T13:02:55.173Z,105888
2017-05-19T13:04:10.745Z,107840
2017-05-19T13:05:25.089Z,93408
2017-05-19T13:06:40.493Z,100896
2017-05-19T13:07:55.892Z,128608
2017-05-19T13:09:10.050Z,116864
2017-05-19T13:10:25.530Z,70016
2017-05-19T13:11:39.698Z,62624
2017-05-19T13:12:55.081Z,97824
2017-05-19T13:14:10.784Z,124736
2017-05-19T13:15:26.497Z,115008
2017-05-19T13:16:42.004Z,99296
2017-05-19T13:17:57.393Z,88064
2017-05-19T13:19:13.331Z,99936
2017-05-19T13:20:29.069Z,110496
2017-05-19T13:21:44.470Z,112224
2017-05-19T13:22:58.620Z,90240
2017-05-19T13:24:14.013Z,58912
2017-05-19T13:25:29.944Z,47392
2017-05-19T13:26:44.196Z,66336
2017-05-19T13:27:59.598Z,100096
2017-05-19T13:29:13.706Z,107744
2017-05-19T13:30:29.300Z,86176
2017-05-19T13:31:45.094Z,70368
2017-05-19T13:32:59.248Z,84000
2017-05-19T13:34:14.656Z,99232
2017-05-19T13:35:30.285Z,88608
2017-05-19T13:36:44.404Z,73184
2017-05-19T13:37:58.388Z,62944
2017-05-19T13:39:13.857Z,68064
2017-05-19T13:40:29.243Z,91872
2017-05-19T13:41:44.983Z,87424
2017-05-19T13:43:00.636Z,43264
2017-05-19T13:44:16.077Z,55520
2017-05-19T13:45:31.774Z,94688
2017-05-19T13:46:46.819Z,73280
2017-05-19T13:48:02.411Z,58624
2017-05-19T13:49:16.511Z,30080
2017-05-19T13:50:30.937Z,32000
2017-05-19T13:51:45.045Z,21600
2017-05-19T13:52:59.143Z,99744
2017-05-19T13:54:14.540Z,79392
2017-05-19T13:55:30.525Z,70336
2017-05-19T13:56:46.180Z,87936
2017-05-19T13:58:01.590Z,99584
2017-05-19T13:59:17.016Z,81856
2017-05-19T14:00:32.870Z,69408
2017-05-19T14:01:48.274Z,71424
2017-05-19T14:03:03.642Z,73440
2017-05-19T14:04:19.060Z,73760
2017-05-19T14:05:34.699Z,68576
2017-05-19T14:06:48.790Z,53536
2017-05-19T14:08:02.942Z,58496
2017-05-19T14:09:18.311Z,85184
2017-05-19T14:10:32.747Z,97408
2017-05-19T14:11:46.937Z,94112
2017-05-19T14:13:02.453Z,67488
2017-05-19T14:14:16.564Z,55040
2017-05-19T14:15:32.005Z,80832
2017-05-19T14:16:47.946Z,92512
2017-05-19T14:18:03.356Z,25024
2017-05-19T14:19:17.454Z,25696
2017-05-19T14:20:30.123Z,18048
2017-05-19T14:21:41.528Z,14768
2017-05-19T14:22:57.025Z,11048
2017-05-19T14:24:12.422Z,8528
2017-05-19T14:25:27.814Z,8908
2017-05-19T14:26:43.730Z,9232
2017-05-19T14:27:59.106Z,8656
2017-05-19T14:29:14.569Z,8672
2017-05-19T14:30:28.811Z,9236
2017-05-19T14:31:44.485Z,10388
2017-05-19T14:32:58.579Z,11728
2017-05-19T14:34:13.953Z,11852
2017-05-19T14:35:29.374Z,65952
2017-05-19T14:36:43.559Z,11936
2017-05-19T14:37:59.027Z,12760
2017-05-19T14:39:13.124Z,13904
2017-05-19T14:40:28.524Z,14532
2017-05-19T14:41:42.810Z,19168
2017-05-19T14:42:58.188Z,46784
2017-05-19T14:44:13.470Z,40192
2017-05-19T14:45:28.898Z,66144
2017-05-19T14:46:43.227Z,65248
2017-05-19T14:47:58.577Z,52000
2017-05-19T14:49:12.814Z,24288
2017-05-19T14:50:27.816Z,8972
2017-05-19T14:51:42.147Z,7640
2017-05-19T14:52:57.563Z,7192
2017-05-19T14:54:12.946Z,7028
2017-05-19T14:55:28.384Z,6716
2017-05-19T14:56:44.016Z,6164
2017-05-19T14:57:59.417Z,5568
2017-05-19T14:59:14.890Z,4888
2017-05-19T15:00:29.021Z,4792
2017-05-19T15:01:44.652Z,4640
2017-05-19T15:03:00.056Z,4224
2017-05-19T15:04:15.508Z,3876
2017-05-19T15:05:30.896Z,3616
2017-05-19T15:06:46.454Z,3228
2017-05-19T15:08:00.530Z,3036
2017-05-19T15:09:15.956Z,3108
2017-05-19T15:10:30.251Z,3392
2017-05-19T15:11:45.615Z,3684
2017-05-19T15:12:59.999Z,3992
2017-05-19T15:14:15.375Z,4220
2017-05-19T15:15:28.166Z,4492
2017-05-19T15:16:43.575Z,5356
2017-05-19T15:17:59.162Z,6632
2017-05-19T15:19:14.351Z,8152
2017-05-19T15:20:29.726Z,10128
2017-05-19T15:21:43.806Z,11536
2017-05-19T15:22:59.415Z,13012
2017-05-19T15:24:13.542Z,14584
2017-05-19T15:25:28.958Z,14044
2017-05-19T15:26:43.970Z,13276
2017-05-19T15:27:58.520Z,13140
2017-05-19T15:29:12.619Z,14276
2017-05-19T15:30:27.970Z,14260
2017-05-19T15:31:42.318Z,14328
2017-05-19T15:32:57.929Z,14500
2017-05-19T15:34:13.303Z,14708
2017-05-19T15:35:28.667Z,15112
2017-05-19T15:36:44.028Z,15388
2017-05-19T15:37:58.349Z,15508
2017-05-19T15:39:13.761Z,15400
2017-05-19T15:40:59.913Z,14700
2017-05-19T15:42:15.338Z,13784
2017-05-19T15:43:29.756Z,13208
2017-05-19T15:44:45.112Z,13220
2017-05-19T15:46:00.526Z,12796
2017-05-19T15:47:15.989Z,11776
2017-05-19T15:48:31.696Z,11384
2017-05-19T15:49:45.442Z,10988
2017-05-19T15:51:00.841Z,9932
2017-05-19T15:52:16.197Z,8872
2017-05-19T15:53:31.854Z,7440
2017-05-19T15:54:45.960Z,6668
2017-05-19T15:55:57.337Z,6844
2017-05-19T15:57:12.743Z,6980
2017-05-19T15:58:28.389Z,7004
2017-05-19T15:59:41.066Z,7108
2017-05-19T16:00:53.726Z,7188
2017-05-19T16:02:09.318Z,5964
2017-05-19T16:03:25.376Z,5344
2017-05-19T16:04:39.503Z,5372
2017-05-19T16:05:53.611Z,5616
2017-05-19T16:07:07.574Z,5920
2017-05-19T16:08:22.944Z,6216
2017-05-19T16:09:38.608Z,6456
2017-05-19T16:10:54.004Z,6444
2017-05-19T16:12:08.091Z,6248
2017-05-19T16:13:23.489Z,6032
2017-05-19T16:14:39.179Z,5844
2017-05-19T16:15:54.570Z,5624
2017-05-19T16:17:08.596Z,5432
2017-05-19T16:18:23.993Z,5292
2017-05-19T16:19:39.649Z,5012
2017-05-19T16:20:53.731Z,4580
2017-05-19T16:22:09.242Z,4144
2017-05-19T16:23:24.610Z,3756
2017-05-19T16:24:40.483Z,3408
2017-05-19T16:25:55.894Z,3160
2017-05-19T16:27:11.287Z,2956
2017-05-19T16:28:26.665Z,2776
2017-05-19T16:29:42.242Z,2640
2017-05-19T16:30:57.748Z,2512
2017-05-19T16:32:12.847Z,2392
2017-05-19T16:33:28.212Z,2272
2017-05-19T16:34:43.857Z,2184
2017-05-19T16:35:58.840Z,2120
2017-05-19T16:37:14.325Z,2056